sensor_id;sensor_type;location;lat;lon;timestamp;pressure;altitude;pressure_sealevel;temperature;humidity
78615;BME280;67937;52.488;20.952;2023-02-28T00:01:42;102185.81;;;-1.37;70.05
78615;BME280;67937;52.488;20.952;2023-02-28T00:04:10;102184.96;;;-1.36;69.99
78615;BME280;67937;52.488;20.952;2023-02-28T00:06:38;102187.20;;;-1.35;69.73
78615;BME280;67937;52.488;20.952;2023-02-28T00:09:06;102183.56;;;-1.40;69.75
78615;BME280;67937;52.488;20.952;2023-02-28T00:11:34;102186.70;;;-1.42;69.78
78615;BME280;67937;52.488;20.952;2023-02-28T00:14:04;102189.98;;;-1.45;69.90
78615;BME280;67937;52.488;20.952;2023-02-28T00:16:32;102190.16;;;-1.47;69.88
78615;BME280;67937;52.488;20.952;2023-02-28T00:19:01;102193.97;;;-1.47;69.55
78615;BME280;67937;52.488;20.952;2023-02-28T00:21:29;102190.85;;;-1.61;69.97
78615;BME280;67937;52.488;20.952;2023-02-28T00:23:57;102190.85;;;-1.65;70.23
78615;BME280;67937;52.488;20.952;2023-02-28T00:26:25;102189.98;;;-1.62;70.53
78615;BME280;67937;52.488;20.952;2023-02-28T00:28:54;102198.12;;;-1.67;70.76
78615;BME280;67937;52.488;20.952;2023-02-28T00:31:22;102195.52;;;-1.69;71.07
78615;BME280;67937;52.488;20.952;2023-02-28T00:33:50;102195.70;;;-1.65;70.98
78615;BME280;67937;52.488;20.952;2023-02-28T00:36:18;102196.56;;;-1.63;70.98
78615;BME280;67937;52.488;20.952;2023-02-28T00:38:47;102194.48;;;-1.66;70.77
78615;BME280;67937;52.488;20.952;2023-02-28T00:41:16;102196.04;;;-1.74;70.81
78615;BME280;67937;52.488;20.952;2023-02-28T00:43:44;102191.52;;;-1.84;70.73
78615;BME280;67937;52.488;20.952;2023-02-28T00:46:12;102193.09;;;-1.88;70.94
78615;BME280;67937;52.488;20.952;2023-02-28T00:48:40;102198.79;;;-1.86;71.09
78615;BME280;67937;52.488;20.952;2023-02-28T00:51:08;102202.09;;;-1.91;70.96
78615;BME280;67937;52.488;20.952;2023-02-28T00:53:36;102202.92;;;-1.99;70.89
78615;BME280;67937;52.488;20.952;2023-02-28T00:56:05;102208.97;;;-2.04;70.98
78615;BME280;67937;52.488;20.952;2023-02-28T00:58:33;102209.30;;;-2.10;71.01
78615;BME280;67937;52.488;20.952;2023-02-28T01:01:01;102212.91;;;-2.17;71.05
78615;BME280;67937;52.488;20.952;2023-02-28T01:03:29;102210.64;;;-2.26;71.44
78615;BME280;67937;52.488;20.952;2023-02-28T01:05:58;102210.29;;;-2.28;71.43
78615;BME280;67937;52.488;20.952;2023-02-28T01:08:26;102208.03;;;-2.30;71.62
78615;BME280;67937;52.488;20.952;2023-02-28T01:10:54;102207.82;;;-2.40;71.71
78615;BME280;67937;52.488;20.952;2023-02-28T01:13:23;102206.05;;;-2.53;72.02
78615;BME280;67937;52.488;20.952;2023-02-28T01:15:54;102208.27;;;-2.56;72.31
78615;BME280;67937;52.488;20.952;2023-02-28T01:18:23;102206.88;;;-2.63;72.14
78615;BME280;67937;52.488;20.952;2023-02-28T01:20:52;102205.64;;;-2.66;72.29
78615;BME280;67937;52.488;20.952;2023-02-28T01:23:21;102213.27;;;-2.59;72.12
78615;BME280;67937;52.488;20.952;2023-02-28T01:25:51;102215.35;;;-2.61;71.81
78615;BME280;67937;52.488;20.952;2023-02-28T01:28:19;102214.63;;;-2.66;71.88
78615;BME280;67937;52.488;20.952;2023-02-28T01:30:49;102209.73;;;-2.78;71.56
78615;BME280;67937;52.488;20.952;2023-02-28T01:33:17;102216.79;;;-2.82;71.67
78615;BME280;67937;52.488;20.952;2023-02-28T01:35:45;102211.04;;;-2.92;71.80
78615;BME280;67937;52.488;20.952;2023-02-28T01:38:14;102217.02;;;-3.04;72.18
78615;BME280;67937;52.488;20.952;2023-02-28T01:40:42;102211.79;;;-3.09;71.99
78615;BME280;67937;52.488;20.952;2023-02-28T01:43:21;102213.20;;;-3.06;72.25
78615;BME280;67937;52.488;20.952;2023-02-28T01:45:54;102212.16;;;-3.06;73.13
78615;BME280;67937;52.488;20.952;2023-02-28T01:48:32;102214.88;;;-3.14;73.88
78615;BME280;67937;52.488;20.952;2023-02-28T01:51:07;102216.08;;;-3.17;74.14
78615;BME280;67937;52.488;20.952;2023-02-28T01:53:43;102211.05;;;-3.18;73.75
78615;BME280;67937;52.488;20.952;2023-02-28T01:56:13;102208.95;;;-3.23;73.59
78615;BME280;67937;52.488;20.952;2023-02-28T01:58:48;102209.82;;;-3.22;73.39
78615;BME280;67937;52.488;20.952;2023-02-28T02:01:16;102209.77;;;-3.29;73.19
78615;BME280;67937;52.488;20.952;2023-02-28T02:03:49;102212.32;;;-3.34;73.16
78615;BME280;67937;52.488;20.952;2023-02-28T02:06:27;102211.10;;;-3.34;73.30
78615;BME280;67937;52.488;20.952;2023-02-28T02:08:57;102212.96;;;-3.39;73.07
78615;BME280;67937;52.488;20.952;2023-02-28T02:11:25;102216.05;;;-3.42;72.88
78615;BME280;67937;52.488;20.952;2023-02-28T02:17:05;102215.51;;;-3.65;73.36
78615;BME280;67937;52.488;20.952;2023-02-28T02:19:49;102210.60;;;-3.76;73.43
78615;BME280;67937;52.488;20.952;2023-02-28T02:25:42;102220.86;;;-3.83;74.93
78615;BME280;67937;52.488;20.952;2023-02-28T02:29:02;102229.75;;;-3.92;74.91
78615;BME280;67937;52.488;20.952;2023-02-28T02:37:02;102230.90;;;-4.13;74.34
78615;BME280;67937;52.488;20.952;2023-02-28T02:39:53;102232.23;;;-4.18;74.59
78615;BME280;67937;52.488;20.952;2023-02-28T02:45:39;102227.27;;;-4.30;74.09
78615;BME280;67937;52.488;20.952;2023-02-28T02:48:11;102227.41;;;-4.32;74.40
78615;BME280;67937;52.488;20.952;2023-02-28T02:51:03;102226.70;;;-4.34;74.19
78615;BME280;67937;52.488;20.952;2023-02-28T02:53:40;102228.40;;;-4.36;74.26
78615;BME280;67937;52.488;20.952;2023-02-28T02:56:11;102228.12;;;-4.45;74.68
78615;BME280;67937;52.488;20.952;2023-02-28T02:58:41;102230.24;;;-4.54;74.75
78615;BME280;67937;52.488;20.952;2023-02-28T03:01:14;102226.96;;;-4.55;74.01
78615;BME280;67937;52.488;20.952;2023-02-28T03:03:44;102228.56;;;-4.52;74.46
78615;BME280;67937;52.488;20.952;2023-02-28T03:06:14;102226.34;;;-4.49;74.70
78615;BME280;67937;52.488;20.952;2023-02-28T03:08:42;102227.22;;;-4.47;75.40
78615;BME280;67937;52.488;20.952;2023-02-28T03:11:14;102228.77;;;-4.47;75.81
78615;BME280;67937;52.488;20.952;2023-02-28T03:19:47;102226.92;;;-4.58;75.33
78615;BME280;67937;52.488;20.952;2023-02-28T03:30:49;102228.34;;;-4.55;74.93
78615;BME280;67937;52.488;20.952;2023-02-28T03:33:24;102231.10;;;-4.55;74.93
78615;BME280;67937;52.488;20.952;2023-02-28T03:35:57;102227.66;;;-4.55;74.91
78615;BME280;67937;52.488;20.952;2023-02-28T03:38:38;102231.20;;;-4.60;74.87
78615;BME280;67937;52.488;20.952;2023-02-28T03:41:25;102231.33;;;-4.63;75.07
78615;BME280;67937;52.488;20.952;2023-02-28T03:43:56;102230.48;;;-4.63;75.23
78615;BME280;67937;52.488;20.952;2023-02-28T03:46:31;102235.35;;;-4.60;75.68
78615;BME280;67937;52.488;20.952;2023-02-28T03:49:23;102240.73;;;-4.55;75.53
78615;BME280;67937;52.488;20.952;2023-02-28T03:51:54;102238.77;;;-4.48;75.36
78615;BME280;67937;52.488;20.952;2023-02-28T03:54:29;102239.16;;;-4.44;75.21
78615;BME280;67937;52.488;20.952;2023-02-28T03:57:25;102240.86;;;-4.46;75.16
78615;BME280;67937;52.488;20.952;2023-02-28T04:00:43;102240.16;;;-4.47;75.25
78615;BME280;67937;52.488;20.952;2023-02-28T04:03:10;102240.32;;;-4.48;74.91
78615;BME280;67937;52.488;20.952;2023-02-28T04:05:52;102245.09;;;-4.52;75.09
78615;BME280;67937;52.488;20.952;2023-02-28T04:08:22;102246.38;;;-4.60;75.20
78615;BME280;67937;52.488;20.952;2023-02-28T04:10:59;102245.95;;;-4.65;75.05
78615;BME280;67937;52.488;20.952;2023-02-28T04:13:28;102246.99;;;-4.65;75.03
78615;BME280;67937;52.488;20.952;2023-02-28T04:15:56;102245.48;;;-4.62;75.00
78615;BME280;67937;52.488;20.952;2023-02-28T04:18:24;102249.91;;;-4.64;75.30
78615;BME280;67937;52.488;20.952;2023-02-28T04:20:53;102247.70;;;-4.75;75.71
78615;BME280;67937;52.488;20.952;2023-02-28T04:23:21;102242.28;;;-4.81;75.56
78615;BME280;67937;52.488;20.952;2023-02-28T04:25:49;102238.40;;;-4.76;76.19
78615;BME280;67937;52.488;20.952;2023-02-28T04:28:18;102240.44;;;-4.78;75.87
78615;BME280;67937;52.488;20.952;2023-02-28T04:30:46;102242.08;;;-4.84;76.24
78615;BME280;67937;52.488;20.952;2023-02-28T04:33:14;102247.83;;;-4.91;76.00
78615;BME280;67937;52.488;20.952;2023-02-28T04:35:42;102248.05;;;-4.88;75.80
78615;BME280;67937;52.488;20.952;2023-02-28T04:38:11;102246.31;;;-4.89;75.53
78615;BME280;67937;52.488;20.952;2023-02-28T04:40:39;102248.13;;;-4.94;75.54
78615;BME280;67937;52.488;20.952;2023-02-28T04:43:07;102248.55;;;-5.00;75.67
78615;BME280;67937;52.488;20.952;2023-02-28T04:45:35;102250.08;;;-5.02;75.37
78615;BME280;67937;52.488;20.952;2023-02-28T04:48:03;102249.42;;;-5.00;75.03
78615;BME280;67937;52.488;20.952;2023-02-28T04:50:32;102250.88;;;-4.94;75.42
78615;BME280;67937;52.488;20.952;2023-02-28T04:53:00;102249.52;;;-4.93;75.62
78615;BME280;67937;52.488;20.952;2023-02-28T04:55:28;102253.03;;;-5.00;75.91
78615;BME280;67937;52.488;20.952;2023-02-28T04:57:56;102259.35;;;-5.03;75.70
78615;BME280;67937;52.488;20.952;2023-02-28T05:00:24;102261.27;;;-5.01;76.31
78615;BME280;67937;52.488;20.952;2023-02-28T05:02:53;102265.88;;;-5.04;76.34
78615;BME280;67937;52.488;20.952;2023-02-28T05:05:21;102269.67;;;-5.03;76.25
78615;BME280;67937;52.488;20.952;2023-02-28T05:07:49;102267.92;;;-5.06;76.08
78615;BME280;67937;52.488;20.952;2023-02-28T05:10:18;102273.02;;;-5.10;76.04
78615;BME280;67937;52.488;20.952;2023-02-28T05:12:46;102275.17;;;-5.04;75.69
78615;BME280;67937;52.488;20.952;2023-02-28T05:15:16;102278.21;;;-4.97;75.22
78615;BME280;67937;52.488;20.952;2023-02-28T05:17:44;102276.92;;;-4.92;75.31
78615;BME280;67937;52.488;20.952;2023-02-28T05:20:12;102283.98;;;-4.93;75.39
78615;BME280;67937;52.488;20.952;2023-02-28T05:22:41;102287.67;;;-4.97;75.43
78615;BME280;67937;52.488;20.952;2023-02-28T05:25:13;102289.86;;;-5.00;75.56
78615;BME280;67937;52.488;20.952;2023-02-28T05:27:43;102290.51;;;-4.92;75.92
78615;BME280;67937;52.488;20.952;2023-02-28T05:30:12;102292.15;;;-4.86;75.75
78615;BME280;67937;52.488;20.952;2023-02-28T05:32:40;102289.15;;;-4.79;75.72
78615;BME280;67937;52.488;20.952;2023-02-28T05:35:12;102292.54;;;-4.71;75.48
78615;BME280;67937;52.488;20.952;2023-02-28T05:37:40;102298.71;;;-4.73;75.14
78615;BME280;67937;52.488;20.952;2023-02-28T05:40:09;102302.91;;;-4.68;75.40
78615;BME280;67937;52.488;20.952;2023-02-28T05:42:38;102304.52;;;-4.65;75.54
78615;BME280;67937;52.488;20.952;2023-02-28T05:45:07;102311.00;;;-4.69;75.57
78615;BME280;67937;52.488;20.952;2023-02-28T05:47:36;102312.65;;;-4.61;75.46
78615;BME280;67937;52.488;20.952;2023-02-28T05:50:05;102313.29;;;-4.53;75.52
78615;BME280;67937;52.488;20.952;2023-02-28T05:52:33;102314.69;;;-4.51;75.69
78615;BME280;67937;52.488;20.952;2023-02-28T05:55:02;102317.18;;;-4.33;76.36
78615;BME280;67937;52.488;20.952;2023-02-28T05:57:30;102316.77;;;-4.38;76.25
78615;BME280;67937;52.488;20.952;2023-02-28T05:59:59;102318.00;;;-4.36;76.58
78615;BME280;67937;52.488;20.952;2023-02-28T06:02:27;102316.71;;;-4.29;76.49
78615;BME280;67937;52.488;20.952;2023-02-28T06:04:55;102317.89;;;-4.18;76.71
78615;BME280;67937;52.488;20.952;2023-02-28T06:07:23;102321.30;;;-4.08;76.95
78615;BME280;67937;52.488;20.952;2023-02-28T06:09:51;102320.86;;;-3.87;77.41
78615;BME280;67937;52.488;20.952;2023-02-28T06:12:20;102322.73;;;-3.88;77.40
78615;BME280;67937;52.488;20.952;2023-02-28T06:14:48;102321.02;;;-3.71;77.81
78615;BME280;67937;52.488;20.952;2023-02-28T06:17:16;102324.38;;;-3.64;78.17
78615;BME280;67937;52.488;20.952;2023-02-28T06:19:44;102325.38;;;-3.67;77.98
78615;BME280;67937;52.488;20.952;2023-02-28T06:22:14;102324.64;;;-3.55;77.76
78615;BME280;67937;52.488;20.952;2023-02-28T06:24:42;102323.61;;;-3.54;77.97
78615;BME280;67937;52.488;20.952;2023-02-28T06:27:11;102321.11;;;-3.46;77.77
78615;BME280;67937;52.488;20.952;2023-02-28T06:29:39;102318.95;;;-3.37;77.99
78615;BME280;67937;52.488;20.952;2023-02-28T06:32:08;102317.61;;;-3.33;78.19
78615;BME280;67937;52.488;20.952;2023-02-28T06:34:36;102316.96;;;-3.28;77.84
78615;BME280;67937;52.488;20.952;2023-02-28T06:37:04;102312.98;;;-3.09;78.12
78615;BME280;67937;52.488;20.952;2023-02-28T06:39:32;102314.79;;;-2.98;78.31
78615;BME280;67937;52.488;20.952;2023-02-28T06:42:00;102312.80;;;-2.88;78.08
78615;BME280;67937;52.488;20.952;2023-02-28T06:44:28;102312.53;;;-2.77;77.90
78615;BME280;67937;52.488;20.952;2023-02-28T06:47:03;102313.60;;;-2.72;77.34
78615;BME280;67937;52.488;20.952;2023-02-28T06:49:33;102309.14;;;-2.67;77.38
78615;BME280;67937;52.488;20.952;2023-02-28T06:52:02;102311.08;;;-2.62;77.07
78615;BME280;67937;52.488;20.952;2023-02-28T06:54:30;102305.23;;;-2.56;76.76
78615;BME280;67937;52.488;20.952;2023-02-28T06:56:59;102300.29;;;-2.43;77.22
78615;BME280;67937;52.488;20.952;2023-02-28T06:59:27;102297.30;;;-2.53;77.35
78615;BME280;67937;52.488;20.952;2023-02-28T07:01:55;102291.95;;;-2.51;77.61
78615;BME280;67937;52.488;20.952;2023-02-28T07:04:24;102289.27;;;-2.34;77.50
78615;BME280;67937;52.488;20.952;2023-02-28T07:06:52;102284.73;;;-2.04;77.42
78615;BME280;67937;52.488;20.952;2023-02-28T07:09:23;102281.67;;;-1.84;77.01
78615;BME280;67937;52.488;20.952;2023-02-28T07:11:56;102273.06;;;-1.58;76.73
78615;BME280;67937;52.488;20.952;2023-02-28T07:14:24;102270.84;;;-1.44;75.92
78615;BME280;67937;52.488;20.952;2023-02-28T07:16:53;102271.88;;;-1.38;75.98
78615;BME280;67937;52.488;20.952;2023-02-28T07:19:21;102272.39;;;-1.18;75.67
78615;BME280;67937;52.488;20.952;2023-02-28T07:21:49;102267.17;;;-0.97;74.70
78615;BME280;67937;52.488;20.952;2023-02-28T07:24:17;102268.05;;;-0.89;74.37
78615;BME280;67937;52.488;20.952;2023-02-28T07:26:45;102267.16;;;-0.82;73.53
78615;BME280;67937;52.488;20.952;2023-02-28T07:29:13;102265.95;;;-0.83;73.46
78615;BME280;67937;52.488;20.952;2023-02-28T07:31:42;102268.89;;;-0.83;73.23
78615;BME280;67937;52.488;20.952;2023-02-28T07:34:10;102267.50;;;-0.77;73.26
78615;BME280;67937;52.488;20.952;2023-02-28T07:36:38;102270.27;;;-0.81;73.08
78615;BME280;67937;52.488;20.952;2023-02-28T07:39:06;102269.92;;;-0.80;72.60
78615;BME280;67937;52.488;20.952;2023-02-28T07:41:36;102259.86;;;-0.72;71.42
78615;BME280;67937;52.488;20.952;2023-02-28T07:44:10;102264.72;;;-0.77;70.62
78615;BME280;67937;52.488;20.952;2023-02-28T07:46:39;102262.48;;;-0.79;70.20
78615;BME280;67937;52.488;20.952;2023-02-28T07:49:07;102261.95;;;-0.81;69.57
78615;BME280;67937;52.488;20.952;2023-02-28T07:51:35;102261.59;;;-0.68;68.87
78615;BME280;67937;52.488;20.952;2023-02-28T07:54:04;102262.77;;;-0.62;68.60
78615;BME280;67937;52.488;20.952;2023-02-28T07:56:32;102262.93;;;-0.57;68.44
78615;BME280;67937;52.488;20.952;2023-02-28T07:59:00;102260.85;;;-0.53;68.24
78615;BME280;67937;52.488;20.952;2023-02-28T08:01:29;102271.40;;;-0.47;67.50
78615;BME280;67937;52.488;20.952;2023-02-28T08:03:57;102273.48;;;-0.45;67.20
78615;BME280;67937;52.488;20.952;2023-02-28T08:06:25;102276.58;;;-0.36;65.77
78615;BME280;67937;52.488;20.952;2023-02-28T08:08:53;102274.82;;;-0.32;64.95
78615;BME280;67937;52.488;20.952;2023-02-28T08:11:23;102278.11;;;-0.28;64.27
78615;BME280;67937;52.488;20.952;2023-02-28T08:13:51;102277.59;;;-0.29;64.10
78615;BME280;67937;52.488;20.952;2023-02-28T08:16:19;102276.64;;;-0.10;64.02
78615;BME280;67937;52.488;20.952;2023-02-28T08:18:50;102279.06;;;-0.09;63.62
78615;BME280;67937;52.488;20.952;2023-02-28T08:21:20;102281.12;;;-0.01;62.99
78615;BME280;67937;52.488;20.952;2023-02-28T08:23:50;102284.01;;;0.10;62.50
78615;BME280;67937;52.488;20.952;2023-02-28T08:26:19;102276.72;;;0.10;62.08
78615;BME280;67937;52.488;20.952;2023-02-28T08:28:48;102276.50;;;0.17;61.23
78615;BME280;67937;52.488;20.952;2023-02-28T08:31:17;102280.65;;;0.21;61.79
78615;BME280;67937;52.488;20.952;2023-02-28T08:33:46;102278.50;;;0.31;61.31
78615;BME280;67937;52.488;20.952;2023-02-28T08:36:15;102281.61;;;0.34;61.52
78615;BME280;67937;52.488;20.952;2023-02-28T08:38:43;102281.07;;;0.36;60.80
78615;BME280;67937;52.488;20.952;2023-02-28T08:41:12;102285.48;;;0.26;61.12
78615;BME280;67937;52.488;20.952;2023-02-28T08:43:41;102285.84;;;0.23;61.41
78615;BME280;67937;52.488;20.952;2023-02-28T08:46:12;102285.77;;;0.31;62.42
78615;BME280;67937;52.488;20.952;2023-02-28T08:48:41;102289.89;;;0.42;61.63
78615;BME280;67937;52.488;20.952;2023-02-28T08:51:13;102290.13;;;0.56;61.33
78615;BME280;67937;52.488;20.952;2023-02-28T08:53:42;102297.98;;;0.76;60.76
78615;BME280;67937;52.488;20.952;2023-02-28T08:56:15;102296.35;;;0.84;61.26
78615;BME280;67937;52.488;20.952;2023-02-28T08:58:44;102292.48;;;0.90;61.14
78615;BME280;67937;52.488;20.952;2023-02-28T09:01:16;102295.51;;;1.02;59.30
78615;BME280;67937;52.488;20.952;2023-02-28T09:03:45;102301.83;;;0.94;59.92
78615;BME280;67937;52.488;20.952;2023-02-28T09:06:15;102301.83;;;0.94;59.95
78615;BME280;67937;52.488;20.952;2023-02-28T09:08:44;102297.61;;;0.99;60.18
78615;BME280;67937;52.488;20.952;2023-02-28T09:11:13;102299.73;;;0.95;59.01
78615;BME280;67937;52.488;20.952;2023-02-28T09:13:41;102301.19;;;0.88;59.58
78615;BME280;67937;52.488;20.952;2023-02-28T09:16:12;102298.16;;;0.97;59.10
78615;BME280;67937;52.488;20.952;2023-02-28T09:18:41;102295.98;;;0.87;59.48
78615;BME280;67937;52.488;20.952;2023-02-28T09:21:13;102295.11;;;0.88;59.56
78615;BME280;67937;52.488;20.952;2023-02-28T09:23:43;102291.05;;;0.93;59.61
78615;BME280;67937;52.488;20.952;2023-02-28T09:26:29;102288.59;;;0.97;59.74
78615;BME280;67937;52.488;20.952;2023-02-28T09:28:57;102285.98;;;0.97;60.40
78615;BME280;67937;52.488;20.952;2023-02-28T09:31:27;102284.20;;;1.02;59.67
78615;BME280;67937;52.488;20.952;2023-02-28T09:33:56;102284.94;;;0.99;60.52
78615;BME280;67937;52.488;20.952;2023-02-28T09:36:26;102287.45;;;0.89;60.29
78615;BME280;67937;52.488;20.952;2023-02-28T09:38:56;102288.76;;;0.98;60.67
78615;BME280;67937;52.488;20.952;2023-02-28T09:41:26;102286.90;;;1.11;60.23
78615;BME280;67937;52.488;20.952;2023-02-28T09:44:00;102287.07;;;1.12;60.73
78615;BME280;67937;52.488;20.952;2023-02-28T09:46:33;102285.48;;;1.14;59.80
78615;BME280;67937;52.488;20.952;2023-02-28T09:49:12;102286.55;;;1.13;59.91
78615;BME280;67937;52.488;20.952;2023-02-28T09:54:15;102283.58;;;1.13;59.88
78615;BME280;67937;52.488;20.952;2023-02-28T10:05:39;102298.01;;;1.33;59.62
78615;BME280;67937;52.488;20.952;2023-02-28T10:08:13;102298.25;;;1.43;60.04
78615;BME280;67937;52.488;20.952;2023-02-28T10:10:51;102296.91;;;1.53;59.91
78615;BME280;67937;52.488;20.952;2023-02-28T10:13:26;102292.16;;;1.58;59.52
78615;BME280;67937;52.488;20.952;2023-02-28T10:16:09;102292.62;;;1.63;58.44
78615;BME280;67937;52.488;20.952;2023-02-28T10:21:34;102294.02;;;1.64;60.23
78615;BME280;67937;52.488;20.952;2023-02-28T10:24:37;102293.23;;;1.85;59.03
78615;BME280;67937;52.488;20.952;2023-02-28T10:27:19;102295.27;;;1.89;58.34
78615;BME280;67937;52.488;20.952;2023-02-28T10:29:50;102287.33;;;1.84;58.92
78615;BME280;67937;52.488;20.952;2023-02-28T10:32:42;102285.52;;;1.89;58.10
78615;BME280;67937;52.488;20.952;2023-02-28T10:35:19;102280.21;;;1.82;57.65
78615;BME280;67937;52.488;20.952;2023-02-28T10:37:51;102271.56;;;1.64;58.38
78615;BME280;67937;52.488;20.952;2023-02-28T10:43:06;102254.67;;;1.79;58.53
78615;BME280;67937;52.488;20.952;2023-02-28T10:46:12;102255.11;;;1.86;57.66
78615;BME280;67937;52.488;20.952;2023-02-28T10:49:05;102247.16;;;1.80;57.69
78615;BME280;67937;52.488;20.952;2023-02-28T10:51:37;102250.13;;;1.81;58.23
78615;BME280;67937;52.488;20.952;2023-02-28T10:54:15;102245.83;;;1.91;57.39
78615;BME280;67937;52.488;20.952;2023-02-28T10:56:43;102242.13;;;1.94;58.71
78615;BME280;67937;52.488;20.952;2023-02-28T11:01:45;102239.39;;;2.27;57.75
78615;BME280;67937;52.488;20.952;2023-02-28T11:07:04;102235.45;;;2.56;56.56
78615;BME280;67937;52.488;20.952;2023-02-28T11:09:35;102227.93;;;2.69;56.29
78615;BME280;67937;52.488;20.952;2023-02-28T11:12:18;102226.86;;;2.80;56.57
78615;BME280;67937;52.488;20.952;2023-02-28T11:14:53;102222.80;;;2.83;54.30
78615;BME280;67937;52.488;20.952;2023-02-28T11:17:28;102220.35;;;2.73;54.86
78615;BME280;67937;52.488;20.952;2023-02-28T11:20:01;102218.37;;;2.77;54.32
78615;BME280;67937;52.488;20.952;2023-02-28T11:22:33;102218.52;;;2.79;54.78
78615;BME280;67937;52.488;20.952;2023-02-28T11:25:12;102217.83;;;2.78;54.65
78615;BME280;67937;52.488;20.952;2023-02-28T11:27:52;102219.00;;;2.81;56.32
78615;BME280;67937;52.488;20.952;2023-02-28T11:32:58;102205.30;;;3.23;54.73
78615;BME280;67937;52.488;20.952;2023-02-28T11:35:38;102204.39;;;3.35;54.16
78615;BME280;67937;52.488;20.952;2023-02-28T11:38:12;102204.95;;;3.41;53.70
78615;BME280;67937;52.488;20.952;2023-02-28T11:40:46;102205.20;;;3.63;55.21
78615;BME280;67937;52.488;20.952;2023-02-28T11:43:39;102199.60;;;4.03;53.27
78615;BME280;67937;52.488;20.952;2023-02-28T11:46:40;102201.30;;;3.98;52.06
78615;BME280;67937;52.488;20.952;2023-02-28T11:49:32;102196.07;;;4.13;53.22
78615;BME280;67937;52.488;20.952;2023-02-28T11:52:21;102197.62;;;4.50;52.25
78615;BME280;67937;52.488;20.952;2023-02-28T11:55:14;102196.45;;;4.41;50.92
78615;BME280;67937;52.488;20.952;2023-02-28T12:03:43;102183.48;;;4.49;51.87
78615;BME280;67937;52.488;20.952;2023-02-28T12:11:48;102174.05;;;4.82;51.60
78615;BME280;67937;52.488;20.952;2023-02-28T12:15:03;102172.20;;;5.18;51.78
78615;BME280;67937;52.488;20.952;2023-02-28T12:27:59;102162.19;;;5.50;49.73
78615;BME280;67937;52.488;20.952;2023-02-28T12:30:32;102161.39;;;5.65;49.03
78615;BME280;67937;52.488;20.952;2023-02-28T12:33:16;102158.35;;;5.38;49.04
78615;BME280;67937;52.488;20.952;2023-02-28T12:35:59;102157.27;;;5.39;48.42
78615;BME280;67937;52.488;20.952;2023-02-28T12:38:41;102150.86;;;5.17;49.90
78615;BME280;67937;52.488;20.952;2023-02-28T12:41:18;102150.46;;;5.07;49.02
78615;BME280;67937;52.488;20.952;2023-02-28T12:44:30;102150.43;;;4.89;50.02
78615;BME280;67937;52.488;20.952;2023-02-28T12:47:00;102148.16;;;5.14;49.32
78615;BME280;67937;52.488;20.952;2023-02-28T12:49:37;102143.70;;;5.11;47.63
78615;BME280;67937;52.488;20.952;2023-02-28T12:52:07;102139.77;;;4.95;48.13
78615;BME280;67937;52.488;20.952;2023-02-28T13:00:12;102136.83;;;4.48;49.88
78615;BME280;67937;52.488;20.952;2023-02-28T13:08:23;102131.10;;;4.40;49.69
78615;BME280;67937;52.488;20.952;2023-02-28T13:10:57;102130.02;;;4.48;50.52
78615;BME280;67937;52.488;20.952;2023-02-28T13:13:27;102121.21;;;4.44;49.71
78615;BME280;67937;52.488;20.952;2023-02-28T13:16:04;102124.77;;;4.41;49.86
78615;BME280;67937;52.488;20.952;2023-02-28T13:18:44;102122.79;;;4.16;50.16
78615;BME280;67937;52.488;20.952;2023-02-28T13:21:24;102119.26;;;4.11;51.11
78615;BME280;67937;52.488;20.952;2023-02-28T13:24:03;102115.17;;;4.06;51.17
78615;BME280;67937;52.488;20.952;2023-02-28T13:34:47;102109.69;;;3.65;52.23
78615;BME280;67937;52.488;20.952;2023-02-28T13:47:44;102083.61;;;3.60;52.77
78615;BME280;67937;52.488;20.952;2023-02-28T14:05:06;102069.13;;;3.52;52.52
78615;BME280;67937;52.488;20.952;2023-02-28T14:07:30;102068.31;;;3.34;52.56
78615;BME280;67937;52.488;20.952;2023-02-28T14:10:03;102063.90;;;3.28;53.08
78615;BME280;67937;52.488;20.952;2023-02-28T14:13:12;102062.87;;;3.36;53.61
78615;BME280;67937;52.488;20.952;2023-02-28T14:15:46;102061.11;;;3.29;53.41
78615;BME280;67937;52.488;20.952;2023-02-28T14:21:24;102060.40;;;3.29;53.73
78615;BME280;67937;52.488;20.952;2023-02-28T14:26:58;102053.23;;;3.38;53.08
78615;BME280;67937;52.488;20.952;2023-02-28T14:32:47;102046.24;;;3.14;52.73
78615;BME280;67937;52.488;20.952;2023-02-28T14:38:28;102042.11;;;3.12;53.49
78615;BME280;67937;52.488;20.952;2023-02-28T14:41:03;102040.25;;;3.01;53.89
78615;BME280;67937;52.488;20.952;2023-02-28T14:43:32;102036.42;;;3.01;52.99
78615;BME280;67937;52.488;20.952;2023-02-28T14:46:02;102038.19;;;3.08;52.53
78615;BME280;67937;52.488;20.952;2023-02-28T14:48:32;102032.22;;;3.01;53.14
78615;BME280;67937;52.488;20.952;2023-02-28T14:51:02;102032.67;;;2.97;53.44
78615;BME280;67937;52.488;20.952;2023-02-28T14:53:35;102031.17;;;2.93;52.96
78615;BME280;67937;52.488;20.952;2023-02-28T14:56:04;102037.16;;;2.82;53.20
78615;BME280;67937;52.488;20.952;2023-02-28T14:58:33;102037.95;;;2.86;53.19
78615;BME280;67937;52.488;20.952;2023-02-28T15:01:03;102039.73;;;2.84;53.56
78615;BME280;67937;52.488;20.952;2023-02-28T15:03:33;102039.95;;;2.73;54.05
78615;BME280;67937;52.488;20.952;2023-02-28T15:06:05;102043.58;;;2.75;53.91
78615;BME280;67937;52.488;20.952;2023-02-28T15:08:33;102042.53;;;2.75;54.52
78615;BME280;67937;52.488;20.952;2023-02-28T15:11:06;102039.23;;;2.65;55.15
78615;BME280;67937;52.488;20.952;2023-02-28T15:13:40;102041.41;;;2.52;55.34
78615;BME280;67937;52.488;20.952;2023-02-28T15:16:13;102039.67;;;2.51;55.59
78615;BME280;67937;52.488;20.952;2023-02-28T15:22:10;102038.95;;;2.44;55.38
78615;BME280;67937;52.488;20.952;2023-02-28T15:24:48;102039.69;;;2.41;55.32
78615;BME280;67937;52.488;20.952;2023-02-28T15:27:30;102039.83;;;2.34;55.81